Buoy 41560

sailwx.info

Track history (hours):
 
Tides and Currents Weather Stations Pressure Air Temp Water Temp Dewpoint Dewpoint Depression Visibility Wind Speed Wind Dir Waves Ship Positions

Drifting buoy 41560

Last reported at 2014-Oct-31 18:00 UTC. Time now 2014-Oct-31 20:12 UTC.
Position N 37°31' W 022°40'.

Barometer 1026.8 mb

Date/timePositionNaut miles runAvg speedWind from/ knotsBaromVisibWave heightAir tempDewpointWater temp
2014-Oct-31 18:00N 37°31' W 022°40'0 0.4 1026.8
2014-Oct-31 17:00N 37°32' W 022°39'0 0.1 1026.4
2014-Oct-31 16:00N 37°32' W 022°39'1 0.7 1026.0
2014-Oct-31 15:00N 37°32' W 022°39'1 0.3 1025.6
2014-Oct-31 12:00N 37°33' W 022°39'0 0.3 1025.2
2014-Oct-31 11:00N 37°33' W 022°38'1 0.8 1024.3
2014-Oct-31 10:00N 37°34' W 022°38'1 0.3 1023.5
2014-Oct-31 08:00N 37°34' W 022°37'1 0.7 1020.8
2014-Oct-31 07:00N 37°35' W 022°38'2 1.1 1019.9
2014-Oct-31 05:00N 37°37' W 022°38'0 0.1 1018.3
2014-Oct-31 03:00N 37°37' W 022°38'2 0.4 1017.3
2014-Oct-30 23:00N 37°39' W 022°38'1 0.6 1015.3
2014-Oct-30 22:00N 37°39' W 022°39'1 0.3 1014.5
2014-Oct-30 20:00N 37°39' W 022°38'1 0.7 1012.5
2014-Oct-30 19:00N 37°39' W 022°39'1 0.9 1011.6
2014-Oct-30 18:00N 37°39' W 022°40'0 0.4 1010.5
2014-Oct-30 17:00N 37°39' W 022°39'1 0.5 1009.3
2014-Oct-30 16:00N 37°40' W 022°40'0 0.0 1008.6
2014-Oct-30 15:00N 37°40' W 022°40'1 1.1 1009.1
2014-Oct-30 14:00N 37°40' W 022°41'1 0.6 1008.5
2014-Oct-30 13:00N 37°40' W 022°42'0 0.2 1009.1
2014-Oct-30 12:00N 37°40' W 022°42'0 0.3 1009.8
2014-Oct-30 11:00N 37°40' W 022°41'1 1.0 1010.3
2014-Oct-30 10:00N 37°40' W 022°42'0 0.1 1009.3
2014-Oct-30 07:00N 37°40' W 022°42'0 0.2 1009.0
2014-Oct-30 06:00N 37°40' W 022°42'0 0.4 1009.2
2014-Oct-30 05:00N 37°40' W 022°42'1 0.7 1009.5
2014-Oct-30 04:00N 37°40' W 022°43'0 0.0 1009.8
2014-Oct-30 03:00N 37°40' W 022°43'1 1.0 1010.2
2014-Oct-30 02:00N 37°39' W 022°44'0 0.0 1010.6
2014-Oct-29 23:00N 37°39' W 022°44'1 1.1 1011.9
2014-Oct-29 22:00N 37°39' W 022°45'2 1.7 1012.0
2014-Oct-29 21:00N 37°38' W 022°43'0 0.2 1012.1
2014-Oct-29 19:00N 37°38' W 022°43'0 0.2 1011.9
2014-Oct-29 17:00N 37°38' W 022°43'1 0.5 1011.6
2014-Oct-29 16:00N 37°38' W 022°43'0 0.3 1011.7
2014-Oct-29 15:00N 37°39' W 022°43'1 0.4 1011.5
2014-Oct-29 11:00N 37°40' W 022°44'0 0.4 1013.7
2014-Oct-29 10:00N 37°40' W 022°44'1 0.3 1013.5
2014-Oct-29 08:00N 37°39' W 022°45'0 0.3 1012.5
2014-Oct-29 07:00N 37°39' W 022°45'0 0.1 1012.3
2014-Oct-29 06:00N 37°39' W 022°45'0 0.1 1012.5
2014-Oct-29 05:00N 37°39' W 022°45'1 0.9 1012.6
2014-Oct-29 04:00N 37°39' W 022°46'1 0.3 1012.7
2014-Oct-29 02:00N 37°39' W 022°45'0 0.0 1013.3
2014-Oct-29 01:00N 37°39' W 022°45'1 0.5 1013.6
2014-Oct-28 23:00N 37°39' W 022°44'0 0.0 1014.6
2014-Oct-28 22:00N 37°39' W 022°44'1 1.3 1014.7
2014-Oct-28 21:00N 37°39' W 022°43'0 0.2 1014.4
2014-Oct-28 20:00N 37°39' W 022°43'1 0.6 1014.4
2014-Oct-28 19:00N 37°40' W 022°42'1 0.5 1014.3
2014-Oct-28 18:00N 37°40' W 022°42'0 0.4 1013.8
2014-Oct-28 17:00N 37°40' W 022°42'0 0.5 1013.6
2014-Oct-28 16:00N 37°41' W 022°43'0 0.4 1013.7
2014-Oct-28 15:00N 37°41' W 022°42'1 0.5 1013.8
2014-Oct-28 13:00N 37°41' W 022°44'1 1.4 1014.6
2014-Oct-28 12:00N 37°43' W 022°45'0 0.0 1015.0
2014-Oct-28 11:00N 37°43' W 022°45'1 1.2 1015.0
2014-Oct-28 10:00N 37°41' W 022°45'0 0.1 1014.8
2014-Oct-28 08:00N 37°41' W 022°45'1 0.5 1014.0
2014-Oct-28 07:00N 37°41' W 022°44'0 0.2 1013.4
2014-Oct-28 06:00N 37°41' W 022°44'2 1.2 1013.2
2014-Oct-28 04:00N 37°43' W 022°42'0 0.0 1012.5
2014-Oct-28 02:00N 37°43' W 022°42'0 0.0 1012.3
2014-Oct-28 01:00N 37°43' W 022°42'2 0.8 1012.2
2014-Oct-27 23:00N 37°45' W 022°43'0 0.1 1012.5
2014-Oct-27 22:00N 37°45' W 022°43'0 0.1 1012.5
2014-Oct-27 21:00N 37°45' W 022°43'1 0.4 1012.0
2014-Oct-27 18:00N 37°46' W 022°44'1 0.5 1011.1
2014-Oct-27 17:00N 37°46' W 022°44'0 0.5 1011.1
2014-Oct-27 16:00N 37°46' W 022°45'0 0.0 1011.2
2014-Oct-27 15:00N 37°46' W 022°45'1 1.0 1011.2
2014-Oct-27 14:00N 37°46' W 022°46'0 0.0 1011.7
2014-Oct-27 13:00N 37°46' W 022°46'1 0.6 1012.5
2014-Oct-27 12:00N 37°45' W 022°45'0 0.0 1013.5
2014-Oct-27 11:00N 37°45' W 022°45'1 0.2 1013.7
2014-Oct-27 08:00N 37°45' W 022°45'1 1.1 1014.6
2014-Oct-27 07:00N 37°45' W 022°44'0 0.0 1014.3
2014-Oct-27 06:00N 37°45' W 022°44'1 0.7 1014.6
2014-Oct-27 05:00N 37°46' W 022°44'1 1.3 1014.5
2014-Oct-27 04:00N 37°47' W 022°45'1 0.4 1014.5
2014-Oct-27 02:00N 37°48' W 022°46'0 0.0 1014.9
2014-Oct-27 00:00N 37°48' W 022°46'1 0.8 1015.6
2014-Oct-26 23:00N 37°47' W 022°46'0 0.0 1015.5
2014-Oct-26 22:00N 37°47' W 022°46'1 0.3 1016.3
2014-Oct-26 20:00N 37°47' W 022°46'1 0.5 1015.4
2014-Oct-26 19:00N 37°46' W 022°45'1 0.6 1014.9
2014-Oct-26 18:00N 37°46' W 022°44'1 0.5 1014.9
2014-Oct-26 17:00N 37°46' W 022°45'1 1.4 1014.4
2014-Oct-26 16:00N 37°46' W 022°43'0 0.1 1014.4
2014-Oct-26 15:00N 37°46' W 022°43'0 0.0 1014.5
2014-Oct-26 14:00N 37°46' W 022°43'1 0.7 1014.8
2014-Oct-26 12:00N 37°47' W 022°43'1 0.7 1015.4
2014-Oct-26 11:00N 37°48' W 022°43'0 0.0 1015.7
2014-Oct-26 10:00N 37°48' W 022°43'1 0.5 1015.5
2014-Oct-26 08:00N 37°47' W 022°42'0 0.0 1014.5
2014-Oct-26 07:00N 37°47' W 022°42'0 0.2 1014.3
2014-Oct-26 06:00N 37°47' W 022°42'0 0.2 1014.3
2014-Oct-26 04:00N 37°47' W 022°42'0 0.2 1014.4
2014-Oct-26 02:00N 37°47' W 022°42'0 0.2 1015.1
2014-Oct-26 01:00N 37°47' W 022°42'0 0.1 1015.4
2014-Oct-25 23:00N 37°47' W 022°42'0 0.1 1015.8
2014-Oct-25 22:00N 37°47' W 022°42'1 0.6 1015.7
2014-Oct-25 21:00N 37°47' W 022°41'0 0.0 1015.5
2014-Oct-25 20:00N 37°47' W 022°41'0 0.1 1015.2
2014-Oct-25 19:00N 37°47' W 022°41'1 0.6 1014.8
2014-Oct-25 18:00N 37°47' W 022°40'0 0.4 1014.3
2014-Oct-25 17:00N 37°47' W 022°40'0 0.4 1014.2
2014-Oct-25 16:00N 37°48' W 022°39'0 0.2 1014.1
2014-Oct-25 14:00N 37°48' W 022°39'1 1.3 1014.7
2014-Oct-25 13:00N 37°49' W 022°39'0 0.2 1015.2
2014-Oct-25 12:00N 37°49' W 022°39'0 0.3 1015.5
2014-Oct-25 11:00N 37°50' W 022°39'0 0.0 1015.1
2014-Oct-25 10:00N 37°50' W 022°39'0 0.2 1014.9
2014-Oct-25 08:00N 37°49' W 022°39'1 1.0 1013.8
2014-Oct-25 07:00N 37°50' W 022°38'0 0.4 1013.9
2014-Oct-25 06:00N 37°50' W 022°38'0 0.1 1013.8
2014-Oct-25 05:00N 37°50' W 022°38'0 0.0 1013.8
2014-Oct-25 04:00N 37°50' W 022°38'0 0.4 1013.8
2014-Oct-25 03:00N 37°50' W 022°38'2 0.5 1014.3
2014-Oct-24 23:00N 37°51' W 022°36'0 0.0 1015.5
2014-Oct-24 22:00N 37°51' W 022°36'1 0.6 1015.5
2014-Oct-24 21:00N 37°52' W 022°36'0 0.0 1015.4
2014-Oct-24 20:00N 37°52' W 022°36'0 0.5 1015.5
2014-Oct-24 19:00N 37°52' W 022°35'0 0.4 1015.3
2014-Oct-24 18:00N 37°52' W 022°36'1 0.6 1015.1
2014-Oct-24 17:00N 37°53' W 022°35'1 0.6 1015.1
2014-Oct-24 16:00N 37°53' W 022°35'0 0.2 1015.2
2014-Oct-24 14:00N 37°53' W 022°35'1 0.9 1015.3
2014-Oct-24 13:00N 37°54' W 022°36'0 0.4 1015.9
2014-Oct-24 12:00N 37°54' W 022°36'1 0.9 1016.6
2014-Oct-24 11:00N 37°53' W 022°35'1 0.5 1017.0
2014-Oct-24 10:00N 37°53' W 022°35'0 0.0 1017.3
2014-Oct-24 09:00N 37°53' W 022°35'0 0.4 1017.0
2014-Oct-24 08:00N 37°53' W 022°35'1 0.7 1016.7
2014-Oct-24 06:00N 37°53' W 022°33'0 0.3 1016.3
2014-Oct-24 05:00N 37°53' W 022°33'0 0.4 1016.3
2014-Oct-24 04:00N 37°54' W 022°33'0 0.4 1016.8
2014-Oct-24 03:00N 37°54' W 022°33'0 0.0 1017.2
2014-Oct-24 02:00N 37°54' W 022°33'0 0.1 1017.4
2014-Oct-23 23:00N 37°54' W 022°33'0 0.0 1018.8
2014-Oct-23 22:00N 37°54' W 022°33'2 0.9 1019.0
2014-Oct-23 20:00N 37°55' W 022°31'1 0.6 1019.1
2014-Oct-23 19:00N 37°55' W 022°31'1 0.8 1018.8
2014-Oct-23 18:00N 37°54' W 022°31'0 0.2 1018.7
2014-Oct-23 16:00N 37°55' W 022°30'1 0.5 1019.4
2014-Oct-23 14:00N 37°54' W 022°30'1 0.6 1020.6
2014-Oct-23 13:00N 37°54' W 022°30'1 0.5 1021.2
2014-Oct-23 11:00N 37°54' W 022°29'0 0.3 1021.4
2014-Oct-23 10:00N 37°54' W 022°28'1 0.4 1021.5
2014-Oct-23 07:00N 37°54' W 022°27'0 0.4 1021.1
2014-Oct-23 06:00N 37°54' W 022°26'1 0.3 1020.9
2014-Oct-23 03:00N 37°54' W 022°25'1 0.2 1021.4
2014-Oct-22 23:00N 37°55' W 022°25'0 0.3 1022.5
2014-Oct-22 22:00N 37°55' W 022°24'0 0.4 1022.6
2014-Oct-22 21:00N 37°55' W 022°25'0 0.2 1022.4
2014-Oct-22 19:00N 37°54' W 022°25'1 0.5 1022.0
2014-Oct-22 17:00N 37°54' W 022°25'1 0.7 1021.4
2014-Oct-22 16:00N 37°53' W 022°24'1 1.3 1021.6
2014-Oct-22 15:00N 37°53' W 022°22'1 0.5 1021.6
2014-Oct-22 12:00N 37°54' W 022°21'0 0.1 1022.9
2014-Oct-22 11:00N 37°54' W 022°21'1 1.1 1022.7
2014-Oct-22 10:00N 37°55' W 022°20'1 0.3 1022.9
2014-Oct-22 07:00N 37°55' W 022°21'1 0.3 1021.7
2014-Oct-22 05:00N 37°55' W 022°21'2 0.8 1021.5
2014-Oct-22 03:00N 37°54' W 022°19'1 0.3 1021.8
2014-Oct-22 00:00N 37°53' W 022°19'0 0.0 1021.8
2014-Oct-21 23:00N 37°53' W 022°19'1 0.6 1021.9
2014-Oct-21 22:00N 37°53' W 022°19'0 0.4 1021.4
2014-Oct-21 21:00N 37°53' W 022°19'1 0.9 1020.9
2014-Oct-21 20:00N 37°53' W 022°18'1 0.8 1020.4
2014-Oct-21 19:00N 37°52' W 022°18'   1019.7
Track history (hours):
 
Tides and Currents Weather Stations Pressure Air Temp Water Temp Dewpoint Dewpoint Depression Visibility Wind Speed Wind Dir Waves Ship Positions

Drifting buoy 41560

Last reported at 2014-Oct-31 18:00 UTC. Time now 2014-Oct-31 20:12 UTC.
Position N 37°31' W 022°40'.

Barometer 1026.8 mb

Date/timePositionNaut miles runAvg speedWind from/ knotsBaromVisibWave heightAir tempDewpointWater temp
2014-Oct-31 18:00N 37°31' W 022°40'0 0.4 1026.8
2014-Oct-31 17:00N 37°32' W 022°39'0 0.1 1026.4
2014-Oct-31 16:00N 37°32' W 022°39'1 0.7 1026.0
2014-Oct-31 15:00N 37°32' W 022°39'1 0.3 1025.6
2014-Oct-31 12:00N 37°33' W 022°39'0 0.3 1025.2
2014-Oct-31 11:00N 37°33' W 022°38'1 0.8 1024.3
2014-Oct-31 10:00N 37°34' W 022°38'1 0.3 1023.5
2014-Oct-31 08:00N 37°34' W 022°37'1 0.7 1020.8
2014-Oct-31 07:00N 37°35' W 022°38'2 1.1 1019.9
2014-Oct-31 05:00N 37°37' W 022°38'0 0.1 1018.3
2014-Oct-31 03:00N 37°37' W 022°38'2 0.4 1017.3
2014-Oct-30 23:00N 37°39' W 022°38'1 0.6 1015.3
2014-Oct-30 22:00N 37°39' W 022°39'1 0.3 1014.5
2014-Oct-30 20:00N 37°39' W 022°38'1 0.7 1012.5
2014-Oct-30 19:00N 37°39' W 022°39'1 0.9 1011.6
2014-Oct-30 18:00N 37°39' W 022°40'0 0.4 1010.5
2014-Oct-30 17:00N 37°39' W 022°39'1 0.5 1009.3
2014-Oct-30 16:00N 37°40' W 022°40'0 0.0 1008.6
2014-Oct-30 15:00N 37°40' W 022°40'1 1.1 1009.1
2014-Oct-30 14:00N 37°40' W 022°41'1 0.6 1008.5
2014-Oct-30 13:00N 37°40' W 022°42'0 0.2 1009.1
2014-Oct-30 12:00N 37°40' W 022°42'0 0.3 1009.8
2014-Oct-30 11:00N 37°40' W 022°41'1 1.0 1010.3
2014-Oct-30 10:00N 37°40' W 022°42'0 0.1 1009.3
2014-Oct-30 07:00N 37°40' W 022°42'0 0.2 1009.0
2014-Oct-30 06:00N 37°40' W 022°42'0 0.4 1009.2
2014-Oct-30 05:00N 37°40' W 022°42'1 0.7 1009.5
2014-Oct-30 04:00N 37°40' W 022°43'0 0.0 1009.8
2014-Oct-30 03:00N 37°40' W 022°43'1 1.0 1010.2
2014-Oct-30 02:00N 37°39' W 022°44'0 0.0 1010.6
2014-Oct-29 23:00N 37°39' W 022°44'1 1.1 1011.9
2014-Oct-29 22:00N 37°39' W 022°45'2 1.7 1012.0
2014-Oct-29 21:00N 37°38' W 022°43'0 0.2 1012.1
2014-Oct-29 19:00N 37°38' W 022°43'0 0.2 1011.9
2014-Oct-29 17:00N 37°38' W 022°43'1 0.5 1011.6
2014-Oct-29 16:00N 37°38' W 022°43'0 0.3 1011.7
2014-Oct-29 15:00N 37°39' W 022°43'1 0.4 1011.5
2014-Oct-29 11:00N 37°40' W 022°44'0 0.4 1013.7
2014-Oct-29 10:00N 37°40' W 022°44'1 0.3 1013.5
2014-Oct-29 08:00N 37°39' W 022°45'0 0.3 1012.5
2014-Oct-29 07:00N 37°39' W 022°45'0 0.1 1012.3
2014-Oct-29 06:00N 37°39' W 022°45'0 0.1 1012.5
2014-Oct-29 05:00N 37°39' W 022°45'1 0.9 1012.6
2014-Oct-29 04:00N 37°39' W 022°46'1 0.3 1012.7
2014-Oct-29 02:00N 37°39' W 022°45'0 0.0 1013.3
2014-Oct-29 01:00N 37°39' W 022°45'1 0.5 1013.6
2014-Oct-28 23:00N 37°39' W 022°44'0 0.0 1014.6
2014-Oct-28 22:00N 37°39' W 022°44'1 1.3 1014.7
2014-Oct-28 21:00N 37°39' W 022°43'0 0.2 1014.4
2014-Oct-28 20:00N 37°39' W 022°43'1 0.6 1014.4
2014-Oct-28 19:00N 37°40' W 022°42'1 0.5 1014.3
2014-Oct-28 18:00N 37°40' W 022°42'0 0.4 1013.8
2014-Oct-28 17:00N 37°40' W 022°42'0 0.5 1013.6
2014-Oct-28 16:00N 37°41' W 022°43'0 0.4 1013.7
2014-Oct-28 15:00N 37°41' W 022°42'1 0.5 1013.8
2014-Oct-28 13:00N 37°41' W 022°44'1 1.4 1014.6
2014-Oct-28 12:00N 37°43' W 022°45'0 0.0 1015.0
2014-Oct-28 11:00N 37°43' W 022°45'1 1.2 1015.0
2014-Oct-28 10:00N 37°41' W 022°45'0 0.1 1014.8
2014-Oct-28 08:00N 37°41' W 022°45'1 0.5 1014.0
2014-Oct-28 07:00N 37°41' W 022°44'0 0.2 1013.4
2014-Oct-28 06:00N 37°41' W 022°44'2 1.2 1013.2
2014-Oct-28 04:00N 37°43' W 022°42'0 0.0 1012.5
2014-Oct-28 02:00N 37°43' W 022°42'0 0.0 1012.3
2014-Oct-28 01:00N 37°43' W 022°42'2 0.8 1012.2
2014-Oct-27 23:00N 37°45' W 022°43'0 0.1 1012.5
2014-Oct-27 22:00N 37°45' W 022°43'0 0.1 1012.5
2014-Oct-27 21:00N 37°45' W 022°43'1 0.4 1012.0
2014-Oct-27 18:00N 37°46' W 022°44'1 0.5 1011.1
2014-Oct-27 17:00N 37°46' W 022°44'0 0.5 1011.1
2014-Oct-27 16:00N 37°46' W 022°45'0 0.0 1011.2
2014-Oct-27 15:00N 37°46' W 022°45'1 1.0 1011.2
2014-Oct-27 14:00N 37°46' W 022°46'0 0.0 1011.7
2014-Oct-27 13:00N 37°46' W 022°46'1 0.6 1012.5
2014-Oct-27 12:00N 37°45' W 022°45'0 0.0 1013.5
2014-Oct-27 11:00N 37°45' W 022°45'1 0.2 1013.7
2014-Oct-27 08:00N 37°45' W 022°45'1 1.1 1014.6
2014-Oct-27 07:00N 37°45' W 022°44'0 0.0 1014.3
2014-Oct-27 06:00N 37°45' W 022°44'1 0.7 1014.6
2014-Oct-27 05:00N 37°46' W 022°44'1 1.3 1014.5
2014-Oct-27 04:00N 37°47' W 022°45'1 0.4 1014.5
2014-Oct-27 02:00N 37°48' W 022°46'0 0.0 1014.9
2014-Oct-27 00:00N 37°48' W 022°46'1 0.8 1015.6
2014-Oct-26 23:00N 37°47' W 022°46'0 0.0 1015.5
2014-Oct-26 22:00N 37°47' W 022°46'1 0.3 1016.3
2014-Oct-26 20:00N 37°47' W 022°46'1 0.5 1015.4
2014-Oct-26 19:00N 37°46' W 022°45'1 0.6 1014.9
2014-Oct-26 18:00N 37°46' W 022°44'1 0.5 1014.9
2014-Oct-26 17:00N 37°46' W 022°45'1 1.4 1014.4
2014-Oct-26 16:00N 37°46' W 022°43'0 0.1 1014.4
2014-Oct-26 15:00N 37°46' W 022°43'0 0.0 1014.5
2014-Oct-26 14:00N 37°46' W 022°43'1 0.7 1014.8
2014-Oct-26 12:00N 37°47' W 022°43'1 0.7 1015.4
2014-Oct-26 11:00N 37°48' W 022°43'0 0.0 1015.7
2014-Oct-26 10:00N 37°48' W 022°43'1 0.5 1015.5
2014-Oct-26 08:00N 37°47' W 022°42'0 0.0 1014.5
2014-Oct-26 07:00N 37°47' W 022°42'0 0.2 1014.3
2014-Oct-26 06:00N 37°47' W 022°42'0 0.2 1014.3
2014-Oct-26 04:00N 37°47' W 022°42'0 0.2 1014.4
2014-Oct-26 02:00N 37°47' W 022°42'0 0.2 1015.1
2014-Oct-26 01:00N 37°47' W 022°42'0 0.1 1015.4
2014-Oct-25 23:00N 37°47' W 022°42'0 0.1 1015.8
2014-Oct-25 22:00N 37°47' W 022°42'1 0.6 1015.7
2014-Oct-25 21:00N 37°47' W 022°41'0 0.0 1015.5
2014-Oct-25 20:00N 37°47' W 022°41'0 0.1 1015.2
2014-Oct-25 19:00N 37°47' W 022°41'1 0.6 1014.8
2014-Oct-25 18:00N 37°47' W 022°40'0 0.4 1014.3
2014-Oct-25 17:00N 37°47' W 022°40'0 0.4 1014.2
2014-Oct-25 16:00N 37°48' W 022°39'0 0.2 1014.1
2014-Oct-25 14:00N 37°48' W 022°39'1 1.3 1014.7
2014-Oct-25 13:00N 37°49' W 022°39'0 0.2 1015.2
2014-Oct-25 12:00N 37°49' W 022°39'0 0.3 1015.5
2014-Oct-25 11:00N 37°50' W 022°39'0 0.0 1015.1
2014-Oct-25 10:00N 37°50' W 022°39'0 0.2 1014.9
2014-Oct-25 08:00N 37°49' W 022°39'1 1.0 1013.8
2014-Oct-25 07:00N 37°50' W 022°38'0 0.4 1013.9
2014-Oct-25 06:00N 37°50' W 022°38'0 0.1 1013.8
2014-Oct-25 05:00N 37°50' W 022°38'0 0.0 1013.8
2014-Oct-25 04:00N 37°50' W 022°38'0 0.4 1013.8
2014-Oct-25 03:00N 37°50' W 022°38'2 0.5 1014.3
2014-Oct-24 23:00N 37°51' W 022°36'0 0.0 1015.5
2014-Oct-24 22:00N 37°51' W 022°36'1 0.6 1015.5
2014-Oct-24 21:00N 37°52' W 022°36'0 0.0 1015.4
2014-Oct-24 20:00N 37°52' W 022°36'0 0.5 1015.5
2014-Oct-24 19:00N 37°52' W 022°35'0 0.4 1015.3
2014-Oct-24 18:00N 37°52' W 022°36'1 0.6 1015.1
2014-Oct-24 17:00N 37°53' W 022°35'1 0.6 1015.1
2014-Oct-24 16:00N 37°53' W 022°35'0 0.2 1015.2
2014-Oct-24 14:00N 37°53' W 022°35'1 0.9 1015.3
2014-Oct-24 13:00N 37°54' W 022°36'0 0.4 1015.9
2014-Oct-24 12:00N 37°54' W 022°36'1 0.9 1016.6
2014-Oct-24 11:00N 37°53' W 022°35'1 0.5 1017.0
2014-Oct-24 10:00N 37°53' W 022°35'0 0.0 1017.3
2014-Oct-24 09:00N 37°53' W 022°35'0 0.4 1017.0
2014-Oct-24 08:00N 37°53' W 022°35'1 0.7 1016.7
2014-Oct-24 06:00N 37°53' W 022°33'0 0.3 1016.3
2014-Oct-24 05:00N 37°53' W 022°33'0 0.4 1016.3
2014-Oct-24 04:00N 37°54' W 022°33'0 0.4 1016.8
2014-Oct-24 03:00N 37°54' W 022°33'0 0.0 1017.2
2014-Oct-24 02:00N 37°54' W 022°33'0 0.1 1017.4
2014-Oct-23 23:00N 37°54' W 022°33'0 0.0 1018.8
2014-Oct-23 22:00N 37°54' W 022°33'2 0.9 1019.0
2014-Oct-23 20:00N 37°55' W 022°31'1 0.6 1019.1
2014-Oct-23 19:00N 37°55' W 022°31'1 0.8 1018.8
2014-Oct-23 18:00N 37°54' W 022°31'0 0.2 1018.7
2014-Oct-23 16:00N 37°55' W 022°30'1 0.5 1019.4
2014-Oct-23 14:00N 37°54' W 022°30'1 0.6 1020.6
2014-Oct-23 13:00N 37°54' W 022°30'1 0.5 1021.2
2014-Oct-23 11:00N 37°54' W 022°29'0 0.3 1021.4
2014-Oct-23 10:00N 37°54' W 022°28'1 0.4 1021.5
2014-Oct-23 07:00N 37°54' W 022°27'0 0.4 1021.1
2014-Oct-23 06:00N 37°54' W 022°26'1 0.3 1020.9
2014-Oct-23 03:00N 37°54' W 022°25'1 0.2 1021.4
2014-Oct-22 23:00N 37°55' W 022°25'0 0.3 1022.5
2014-Oct-22 22:00N 37°55' W 022°24'0 0.4 1022.6
2014-Oct-22 21:00N 37°55' W 022°25'0 0.2 1022.4
2014-Oct-22 19:00N 37°54' W 022°25'1 0.5 1022.0
2014-Oct-22 17:00N 37°54' W 022°25'1 0.7 1021.4
2014-Oct-22 16:00N 37°53' W 022°24'1 1.3 1021.6
2014-Oct-22 15:00N 37°53' W 022°22'1 0.5 1021.6
2014-Oct-22 12:00N 37°54' W 022°21'0 0.1 1022.9
2014-Oct-22 11:00N 37°54' W 022°21'1 1.1 1022.7
2014-Oct-22 10:00N 37°55' W 022°20'1 0.3 1022.9
2014-Oct-22 07:00N 37°55' W 022°21'1 0.3 1021.7
2014-Oct-22 05:00N 37°55' W 022°21'2 0.8 1021.5
2014-Oct-22 03:00N 37°54' W 022°19'1 0.3 1021.8
2014-Oct-22 00:00N 37°53' W 022°19'0 0.0 1021.8
2014-Oct-21 23:00N 37°53' W 022°19'1 0.6 1021.9
2014-Oct-21 22:00N 37°53' W 022°19'0 0.4 1021.4
2014-Oct-21 21:00N 37°53' W 022°19'1 0.9 1020.9
2014-Oct-21 20:00N 37°53' W 022°18'1 0.8 1020.4
2014-Oct-21 19:00N 37°52' W 022°18'   1019.7

Dump ship's entire track history